createdAt,value
2023-04-05T00:00:35.570Z,6.20
2023-04-05T00:02:06.865Z,5.96
2023-04-05T00:03:42.185Z,6.21
2023-04-05T00:05:13.825Z,5.84
2023-04-05T00:06:45.469Z,6.03
2023-04-05T00:08:16.905Z,5.97
2023-04-05T00:09:48.531Z,5.97
2023-04-05T00:11:19.889Z,5.85
2023-04-05T00:12:51.282Z,6.28
2023-04-05T00:14:22.555Z,6.00
2023-04-05T00:15:53.973Z,5.91
2023-04-05T00:17:25.431Z,6.52
2023-04-05T00:18:56.806Z,6.42
2023-04-05T00:20:27.958Z,6.24
2023-04-05T00:21:59.397Z,6.20
2023-04-05T00:23:30.632Z,6.26
2023-04-05T00:25:02.034Z,6.17
2023-04-05T00:26:33.270Z,6.08
2023-04-05T00:28:04.503Z,6.33
2023-04-05T00:29:35.741Z,6.61
2023-04-05T00:31:12.034Z,6.24
2023-04-05T00:32:43.434Z,6.31
2023-04-05T00:34:14.747Z,6.62
2023-04-05T00:35:46.109Z,6.80
2023-04-05T00:37:17.519Z,6.54
2023-04-05T00:38:48.857Z,6.40
2023-04-05T00:40:20.063Z,6.37
2023-04-05T00:41:51.412Z,6.60
2023-04-05T00:43:23.030Z,6.99
2023-04-05T00:44:54.290Z,6.77
2023-04-05T00:46:25.541Z,6.96
2023-04-05T00:47:56.793Z,6.66
2023-04-05T00:49:28.217Z,6.52
2023-04-05T00:50:59.396Z,6.55
2023-04-05T00:52:30.636Z,6.51
2023-04-05T00:54:02.190Z,6.87
2023-04-05T00:55:33.460Z,6.45
2023-04-05T00:57:04.620Z,7.00
2023-04-05T00:58:35.866Z,6.45
2023-04-05T01:00:07.237Z,6.73
2023-04-05T01:01:38.642Z,6.55
2023-04-05T01:03:10.408Z,6.55
2023-04-05T01:04:41.858Z,7.03
2023-04-05T01:06:14.422Z,6.60
2023-04-05T01:07:47.596Z,6.57
2023-04-05T01:09:19.135Z,6.70
2023-04-05T01:10:50.802Z,6.62
2023-04-05T01:12:22.118Z,6.87
2023-04-05T01:13:53.509Z,6.34
2023-04-05T01:15:24.759Z,6.76
2023-04-05T01:16:56.529Z,6.65
2023-04-05T01:18:27.944Z,6.85
2023-04-05T01:19:59.563Z,6.76
2023-04-05T01:21:30.868Z,7.31
2023-04-05T01:23:02.324Z,7.04
2023-04-05T01:24:33.486Z,7.02
2023-04-05T01:26:04.584Z,7.25
2023-04-05T01:27:35.853Z,7.40
2023-04-05T01:29:07.019Z,7.34
2023-04-05T01:30:38.978Z,7.58
2023-04-05T01:32:10.875Z,7.18
2023-04-05T01:33:42.086Z,7.26
2023-04-05T01:35:13.351Z,7.04
2023-04-05T01:36:44.520Z,7.06
2023-04-05T01:38:16.110Z,6.86
2023-04-05T01:39:48.418Z,7.24
2023-04-05T01:41:19.672Z,7.43
2023-04-05T01:42:52.072Z,7.01
2023-04-05T01:44:23.360Z,7.16
2023-04-05T01:45:54.879Z,7.01
2023-04-05T01:47:26.090Z,6.87
2023-04-05T01:48:57.619Z,7.01
2023-04-05T01:50:28.778Z,6.61
2023-04-05T01:52:00.995Z,6.89
2023-04-05T01:53:32.483Z,6.98
2023-04-05T01:55:03.758Z,6.84
2023-04-05T01:56:35.178Z,6.48
2023-04-05T01:58:11.659Z,6.22
2023-04-05T01:59:43.185Z,6.53
2023-04-05T02:01:14.926Z,6.45
2023-04-05T02:02:46.413Z,6.40
2023-04-05T02:04:17.637Z,6.66
2023-04-05T02:05:48.786Z,6.78
2023-04-05T02:07:20.580Z,6.57
2023-04-05T02:08:51.696Z,6.74
2023-04-05T02:10:23.123Z,6.58
2023-04-05T02:11:54.454Z,6.78
2023-04-05T02:13:25.858Z,6.46
2023-04-05T02:14:57.009Z,6.64
2023-04-05T02:16:28.245Z,7.08
2023-04-05T02:17:59.853Z,6.60
2023-04-05T02:19:31.435Z,6.79
2023-04-05T02:21:02.959Z,6.86
2023-04-05T02:22:34.332Z,6.90
2023-04-05T02:24:05.420Z,7.04
2023-04-05T02:25:36.558Z,6.96
2023-04-05T02:27:07.950Z,6.91
2023-04-05T02:28:39.488Z,6.72
2023-04-05T02:30:10.638Z,7.10
2023-04-05T02:31:42.160Z,6.95
2023-04-05T02:33:13.418Z,6.86
2023-04-05T02:34:44.542Z,6.65
2023-04-05T02:36:15.954Z,6.72
2023-04-05T02:37:47.232Z,6.65
2023-04-05T02:39:18.487Z,7.03
2023-04-05T02:40:50.271Z,6.81
2023-04-05T02:42:21.674Z,6.79
2023-04-05T02:43:53.077Z,7.06
2023-04-05T02:45:24.549Z,6.76
2023-04-05T02:46:55.658Z,7.05
2023-04-05T02:48:27.050Z,6.97
2023-04-05T02:49:58.406Z,6.88
2023-04-05T02:51:29.542Z,7.24
2023-04-05T02:53:01.032Z,7.61
2023-04-05T02:54:32.613Z,8.00
2023-04-05T02:56:03.760Z,7.94
2023-04-05T02:57:34.972Z,8.20
2023-04-05T02:59:06.349Z,8.39
2023-04-05T03:00:38.671Z,7.88
2023-04-05T03:02:10.442Z,8.04
2023-04-05T03:03:41.721Z,8.67
2023-04-05T03:05:13.105Z,8.44
2023-04-05T03:06:44.227Z,8.07
2023-04-05T03:08:15.440Z,7.91
2023-04-05T03:09:46.920Z,7.74
2023-04-05T03:11:18.346Z,8.22
2023-04-05T03:12:49.528Z,8.01
2023-04-05T03:14:20.735Z,7.82
2023-04-05T03:15:52.027Z,8.16
2023-04-05T03:17:23.297Z,8.37
2023-04-05T03:18:54.582Z,8.28
2023-04-05T03:20:25.963Z,8.36
2023-04-05T03:21:57.278Z,7.91
2023-04-05T03:23:28.864Z,7.86
2023-04-05T03:25:00.250Z,8.56
2023-04-05T03:26:31.521Z,7.95
2023-04-05T03:28:02.653Z,7.94
2023-04-05T03:29:34.026Z,8.29
2023-04-05T03:31:05.131Z,8.04
2023-04-05T03:32:36.548Z,8.01
2023-04-05T03:34:07.700Z,8.36
2023-04-05T03:35:39.082Z,8.84
2023-04-05T03:37:10.438Z,8.35
2023-04-05T03:38:42.699Z,8.51
2023-04-05T03:40:14.165Z,8.13
2023-04-05T03:41:45.656Z,8.29
2023-04-05T03:43:17.052Z,8.65
2023-04-05T03:44:48.487Z,8.58
2023-04-05T03:46:19.690Z,8.65
2023-04-05T03:47:50.909Z,8.61
2023-04-05T03:49:22.358Z,8.79
2023-04-05T03:50:53.983Z,8.42
2023-04-05T03:52:25.230Z,8.32
2023-04-05T03:53:56.500Z,8.67
2023-04-05T03:55:27.690Z,8.81
2023-04-05T03:56:58.873Z,8.39
2023-04-05T03:58:30.192Z,8.40
2023-04-05T04:00:01.568Z,8.26
2023-04-05T04:01:32.978Z,8.38
2023-04-05T04:03:04.285Z,8.03
2023-04-05T04:04:35.518Z,8.51
2023-04-05T04:06:06.850Z,9.03
2023-04-05T04:07:38.164Z,8.52
2023-04-05T04:09:09.337Z,8.63
2023-04-05T04:10:40.749Z,8.75
2023-04-05T04:12:12.120Z,8.76
2023-04-05T04:13:43.313Z,8.47
2023-04-05T04:15:14.625Z,8.64
2023-04-05T04:16:46.159Z,8.79
2023-04-05T04:18:17.732Z,8.65
2023-04-05T04:19:48.982Z,8.75
2023-04-05T04:21:20.145Z,8.66
2023-04-05T04:22:51.561Z,8.56
2023-04-05T04:24:23.058Z,8.86
2023-04-05T04:25:54.600Z,9.17
2023-04-05T04:27:26.017Z,9.14
2023-04-05T04:28:58.706Z,8.55
2023-04-05T04:30:29.900Z,8.55
2023-04-05T04:32:01.333Z,8.75
2023-04-05T04:33:32.694Z,8.75
2023-04-05T04:35:03.824Z,9.08
2023-04-05T04:36:35.162Z,8.71
2023-04-05T04:38:06.666Z,8.83
2023-04-05T04:39:38.079Z,8.76
2023-04-05T04:41:09.447Z,8.67
2023-04-05T04:42:40.874Z,8.74
2023-04-05T04:44:12.453Z,8.97
2023-04-05T04:45:44.055Z,8.91
2023-04-05T04:47:15.268Z,9.32
2023-04-05T04:48:46.394Z,9.42
2023-04-05T04:50:20.172Z,9.53
2023-04-05T04:51:51.358Z,8.89
2023-04-05T04:53:24.316Z,9.20
2023-04-05T04:54:56.058Z,9.09
2023-04-05T04:56:27.815Z,8.90
2023-04-05T04:58:00.034Z,9.30
2023-04-05T04:59:32.208Z,9.06
2023-04-05T05:01:04.472Z,9.11
2023-04-05T05:02:35.847Z,9.17
2023-04-05T05:04:06.946Z,9.13
2023-04-05T05:05:38.319Z,9.41
2023-04-05T05:07:09.473Z,9.66
2023-04-05T05:08:41.080Z,9.14
2023-04-05T05:10:12.363Z,9.50
2023-04-05T05:11:44.099Z,9.28
2023-04-05T05:13:15.395Z,9.58
2023-04-05T05:14:46.802Z,12.54
2023-04-05T05:16:18.121Z,11.25
2023-04-05T05:17:49.520Z,10.00
2023-04-05T05:19:20.778Z,9.45
2023-04-05T05:20:52.474Z,9.16
2023-04-05T05:22:25.265Z,8.85
2023-04-05T05:23:57.044Z,9.06
2023-04-05T05:25:28.542Z,9.18
2023-04-05T05:27:01.057Z,9.05
2023-04-05T05:28:32.217Z,9.30
2023-04-05T05:30:03.796Z,9.70
2023-04-05T05:31:35.307Z,9.57
2023-04-05T05:33:06.592Z,9.28
2023-04-05T05:34:37.745Z,9.82
2023-04-05T05:36:08.940Z,9.58
2023-04-05T05:37:40.443Z,9.42
2023-04-05T05:39:11.993Z,8.88
2023-04-05T05:40:43.541Z,9.26
2023-04-05T05:42:15.015Z,9.52
2023-04-05T05:43:46.217Z,9.65
2023-04-05T05:45:17.505Z,9.60
2023-04-05T05:46:49.615Z,9.36
2023-04-05T05:48:21.287Z,9.28
2023-04-05T05:49:52.709Z,9.23
2023-04-05T05:51:23.960Z,9.65
2023-04-05T05:52:55.390Z,9.67
2023-04-05T05:54:26.579Z,9.46
2023-04-05T05:55:58.221Z,9.04
2023-04-05T05:57:30.992Z,9.55
2023-04-05T05:59:03.317Z,9.65
2023-04-05T06:00:35.081Z,9.34
2023-04-05T06:02:07.940Z,8.89
2023-04-05T06:03:39.432Z,9.49
2023-04-05T06:05:11.060Z,9.48
2023-04-05T06:06:42.372Z,9.27
2023-04-05T06:08:13.669Z,8.82
2023-04-05T06:09:44.893Z,9.05
2023-04-05T06:11:16.390Z,9.64
2023-04-05T06:12:47.890Z,9.63
2023-04-05T06:14:19.097Z,9.26
2023-04-05T06:15:50.533Z,9.02
2023-04-05T06:17:21.979Z,9.22
2023-04-05T06:18:53.152Z,9.08
2023-04-05T06:20:24.271Z,8.69
2023-04-05T06:21:55.488Z,8.70
2023-04-05T06:23:27.384Z,8.67
2023-04-05T06:24:59.223Z,8.97
2023-04-05T06:26:30.668Z,9.04
2023-04-05T06:28:02.249Z,9.20
2023-04-05T06:29:33.694Z,8.78
2023-04-05T06:31:04.943Z,9.26
2023-04-05T06:32:36.773Z,9.23
2023-04-05T06:34:08.522Z,9.29
2023-04-05T06:35:44.870Z,9.54
2023-04-05T06:37:16.131Z,9.35
2023-04-05T06:38:47.530Z,9.45
2023-04-05T06:40:19.029Z,9.64
2023-04-05T06:41:50.540Z,9.09
2023-04-05T06:43:21.821Z,8.92
2023-04-05T06:44:53.028Z,9.32
2023-04-05T06:46:25.765Z,9.43
2023-04-05T06:47:57.410Z,9.27
2023-04-05T06:49:28.756Z,9.44
2023-04-05T06:51:00.173Z,9.29
2023-04-05T06:52:31.851Z,9.14
2023-04-05T06:54:03.093Z,8.83
2023-04-05T06:55:34.651Z,9.24
2023-04-05T06:57:05.881Z,8.96
2023-04-05T06:58:37.206Z,8.52
2023-04-05T07:00:08.501Z,8.38
2023-04-05T07:01:39.765Z,8.80
2023-04-05T07:03:11.086Z,9.05
2023-04-05T07:04:42.497Z,8.76
2023-04-05T07:06:13.726Z,8.37
2023-04-05T07:07:44.867Z,8.07
2023-04-05T07:09:16.271Z,8.04
2023-04-05T07:10:47.695Z,8.23
2023-04-05T07:12:20.304Z,8.19
2023-04-05T07:13:51.926Z,8.06
2023-04-05T07:15:23.443Z,8.24
2023-04-05T07:16:54.673Z,7.72
2023-04-05T07:18:25.894Z,7.75
2023-04-05T07:19:57.132Z,7.55
2023-04-05T07:21:28.822Z,7.73
2023-04-05T07:23:00.631Z,7.69
2023-04-05T07:24:31.885Z,7.36
2023-04-05T07:26:03.388Z,7.35
2023-04-05T07:27:34.524Z,7.08
2023-04-05T07:29:05.705Z,7.13
2023-04-05T07:30:36.906Z,6.83
2023-04-05T07:32:08.210Z,7.00
2023-04-05T07:33:39.473Z,7.35
2023-04-05T07:35:10.809Z,8.26
2023-04-05T07:36:42.480Z,6.80
2023-04-05T07:38:13.857Z,7.19
2023-04-05T07:39:45.049Z,6.86
2023-04-05T07:41:16.476Z,6.67
2023-04-05T07:42:49.306Z,6.70
2023-04-05T07:44:20.521Z,6.88
2023-04-05T07:45:51.717Z,6.89
2023-04-05T07:47:22.895Z,7.29
2023-04-05T07:48:54.268Z,6.92
2023-04-05T07:50:25.668Z,6.71
2023-04-05T07:51:56.912Z,6.76
2023-04-05T07:53:28.630Z,7.12
2023-04-05T07:54:59.755Z,7.35
2023-04-05T07:56:31.095Z,6.68
2023-04-05T07:58:02.506Z,6.38
2023-04-05T07:59:33.723Z,5.92
2023-04-05T08:01:04.880Z,5.89
2023-04-05T08:02:36.291Z,6.27
2023-04-05T08:04:07.831Z,5.84
2023-04-05T08:05:39.233Z,5.75
2023-04-05T08:07:10.508Z,5.83
2023-04-05T08:08:41.725Z,6.05
2023-04-05T08:10:12.867Z,6.60
2023-04-05T08:11:44.039Z,5.82
2023-04-05T08:13:15.273Z,5.50
2023-04-05T08:14:46.811Z,5.37
2023-04-05T08:16:18.086Z,4.98
2023-04-05T08:17:49.656Z,5.16
2023-04-05T08:19:21.015Z,5.23
2023-04-05T08:20:52.257Z,4.61
2023-04-05T08:22:23.617Z,4.79
2023-04-05T08:23:54.962Z,4.64
2023-04-05T08:25:26.257Z,4.86
2023-04-05T08:26:57.736Z,5.20
2023-04-05T08:28:28.927Z,5.36
2023-04-05T08:30:00.141Z,5.24
2023-04-05T08:31:32.871Z,5.21
2023-04-05T08:33:04.280Z,5.50
2023-04-05T08:34:35.531Z,4.88
2023-04-05T08:36:06.817Z,4.95
2023-04-05T08:37:38.188Z,5.10
2023-04-05T08:39:09.409Z,5.18
2023-04-05T08:40:40.878Z,4.81
2023-04-05T08:42:12.246Z,4.94
2023-04-05T08:43:43.752Z,5.24
2023-04-05T08:45:15.129Z,5.08
2023-04-05T08:46:46.748Z,4.94
2023-04-05T08:48:18.122Z,5.03
2023-04-05T08:49:49.557Z,5.16
2023-04-05T08:51:21.041Z,5.04
2023-04-05T08:52:52.537Z,4.88
2023-04-05T08:54:23.882Z,4.90
2023-04-05T08:55:56.243Z,4.66
2023-04-05T08:57:27.607Z,4.68
2023-04-05T08:58:59.421Z,5.17
2023-04-05T09:00:30.719Z,5.13
2023-04-05T09:02:02.986Z,5.00
2023-04-05T09:03:34.510Z,4.74
2023-04-05T09:05:06.241Z,4.67
2023-04-05T09:06:37.537Z,4.89
2023-04-05T09:08:08.925Z,4.75
2023-04-05T09:09:40.240Z,4.77
2023-04-05T09:11:11.560Z,4.75
2023-04-05T09:12:42.772Z,4.70
2023-04-05T09:14:14.094Z,4.67
2023-04-05T09:15:45.683Z,4.91
2023-04-05T09:17:17.183Z,4.85
2023-04-05T09:18:48.488Z,4.75
2023-04-05T09:20:19.737Z,4.56
2023-04-05T09:21:51.087Z,4.95
2023-04-05T09:23:22.340Z,4.83
2023-04-05T09:24:54.001Z,4.77
2023-04-05T09:26:25.359Z,4.93
2023-04-05T09:27:56.707Z,4.49
2023-04-05T09:29:28.274Z,4.85
2023-04-05T09:30:59.834Z,4.85
2023-04-05T09:32:31.325Z,4.69
2023-04-05T09:34:02.873Z,4.84
2023-04-05T09:35:34.176Z,5.07
2023-04-05T09:37:05.581Z,4.35
2023-04-05T09:38:36.896Z,4.94
2023-04-05T09:40:08.314Z,4.95
2023-04-05T09:41:39.480Z,4.72
2023-04-05T09:43:10.795Z,4.72
2023-04-05T09:44:42.103Z,4.51
2023-04-05T09:46:13.575Z,4.69
2023-04-05T09:47:49.954Z,4.71
2023-04-05T09:49:21.564Z,4.80
2023-04-05T09:50:56.530Z,4.70
2023-04-05T09:52:32.309Z,4.99
2023-04-05T09:54:03.753Z,4.86
2023-04-05T09:55:35.057Z,5.11
2023-04-05T09:57:06.381Z,4.84
2023-04-05T09:58:37.603Z,5.02
2023-04-05T10:00:09.029Z,5.16
2023-04-05T10:01:41.645Z,5.22
2023-04-05T10:03:13.180Z,5.42
2023-04-05T10:04:44.420Z,5.27
2023-04-05T10:06:15.911Z,5.24
2023-04-05T10:07:47.458Z,5.04
2023-04-05T10:09:18.920Z,5.03
2023-04-05T10:10:50.129Z,5.37
2023-04-05T10:12:21.470Z,5.28
2023-04-05T10:13:53.007Z,5.00
2023-04-05T10:15:24.207Z,5.04
2023-04-05T10:16:57.011Z,5.20
2023-04-05T10:18:28.582Z,5.24
2023-04-05T10:20:00.219Z,4.86
2023-04-05T10:21:31.524Z,5.25
2023-04-05T10:23:02.789Z,5.42
2023-04-05T10:24:34.566Z,5.28
2023-04-05T10:26:05.738Z,5.31
2023-04-05T10:27:37.050Z,5.34
2023-04-05T10:29:08.823Z,5.09
2023-04-05T10:30:40.879Z,4.81
2023-04-05T10:32:12.316Z,5.24
2023-04-05T10:33:43.661Z,4.56
2023-04-05T10:35:14.973Z,5.28
2023-04-05T10:36:46.312Z,5.64
2023-04-05T10:38:17.746Z,5.36
2023-04-05T10:40:14.138Z,4.79
2023-04-05T10:41:45.503Z,4.70
2023-04-05T10:43:16.984Z,4.90
2023-04-05T10:44:48.417Z,5.30
2023-04-05T10:46:19.767Z,4.95
2023-04-05T10:47:51.207Z,4.89
2023-04-05T10:49:22.596Z,4.74
2023-04-05T10:50:53.966Z,5.12
2023-04-05T10:52:25.143Z,5.10
2023-04-05T10:53:56.680Z,5.20
2023-04-05T10:55:28.172Z,4.84
2023-04-05T10:56:59.475Z,4.70
2023-04-05T10:58:30.861Z,4.57
2023-04-05T11:00:03.219Z,4.91
2023-04-05T11:01:34.960Z,4.78
2023-04-05T11:03:06.427Z,4.71
2023-04-05T11:04:40.906Z,4.98
2023-04-05T11:06:13.004Z,4.66
2023-04-05T11:07:44.559Z,4.51
2023-04-05T11:09:15.994Z,4.75
2023-04-05T11:10:47.359Z,4.44
2023-04-05T11:12:18.681Z,4.22
2023-04-05T11:13:50.069Z,4.54
2023-04-05T11:15:21.378Z,4.97
2023-04-05T11:16:52.838Z,3.91
2023-04-05T11:18:24.268Z,4.61
2023-04-05T11:19:55.538Z,4.03
2023-04-05T11:21:26.883Z,4.89
2023-04-05T11:22:58.277Z,4.94
2023-04-05T11:24:29.564Z,4.66
2023-04-05T11:26:00.862Z,4.52
2023-04-05T11:27:32.190Z,4.43
2023-04-05T11:29:03.620Z,4.68
2023-04-05T11:30:35.039Z,4.72
2023-04-05T11:32:06.535Z,4.38
2023-04-05T11:33:37.940Z,4.26
2023-04-05T11:35:09.183Z,4.19
2023-04-05T11:36:40.498Z,4.60
2023-04-05T11:38:11.977Z,4.43
2023-04-05T11:39:43.566Z,4.32
2023-04-05T11:41:14.836Z,4.29
2023-04-05T11:42:46.338Z,4.01
2023-04-05T11:44:17.742Z,4.24
2023-04-05T11:45:49.119Z,4.02
2023-04-05T11:47:20.416Z,4.25
2023-04-05T11:48:51.966Z,4.59
2023-04-05T11:50:23.473Z,4.19
2023-04-05T11:51:54.895Z,3.88
2023-04-05T11:53:26.251Z,4.04
2023-04-05T11:54:57.663Z,4.06
2023-04-05T11:56:29.084Z,4.23
2023-04-05T11:58:00.711Z,4.20
2023-04-05T11:59:32.493Z,4.34
2023-04-05T12:01:03.992Z,4.49
2023-04-05T12:02:35.461Z,3.98
2023-04-05T12:04:06.854Z,4.11
2023-04-05T12:05:38.445Z,4.09
2023-04-05T12:07:09.866Z,4.25
2023-04-05T12:08:47.439Z,4.02
2023-04-05T12:10:20.632Z,3.94
2023-04-05T12:11:52.297Z,3.81
2023-04-05T12:13:23.634Z,4.38
2023-04-05T12:14:54.964Z,4.24
2023-04-05T12:16:26.311Z,4.03
2023-04-05T12:17:57.904Z,4.10
2023-04-05T12:19:29.347Z,4.05
2023-04-05T12:21:00.778Z,3.91
2023-04-05T12:22:32.139Z,3.89
2023-04-05T12:24:03.466Z,3.45
2023-04-05T12:25:35.028Z,4.01
2023-04-05T12:27:06.486Z,4.11
2023-04-05T12:28:38.047Z,4.32
2023-04-05T12:30:09.465Z,4.21
2023-04-05T12:31:41.489Z,3.55
2023-04-05T12:33:12.975Z,3.84
2023-04-05T12:34:44.576Z,3.82
2023-04-05T12:36:16.182Z,3.70
2023-04-05T12:37:47.774Z,3.54
2023-04-05T12:39:19.393Z,3.67
2023-04-05T12:40:50.925Z,3.73
2023-04-05T12:42:22.431Z,3.71
2023-04-05T12:43:53.836Z,3.93
2023-04-05T12:45:25.442Z,3.82
2023-04-05T12:46:57.079Z,3.77
2023-04-05T12:48:28.747Z,3.72
2023-04-05T12:50:00.309Z,3.95
2023-04-05T12:51:31.720Z,4.00
2023-04-05T12:53:03.073Z,4.02
2023-04-05T12:54:34.583Z,3.88
2023-04-05T12:56:06.479Z,4.03
2023-04-05T12:57:38.008Z,3.99
2023-04-05T12:59:09.408Z,3.77
2023-04-05T13:00:40.849Z,3.91
2023-04-05T13:02:12.418Z,3.87
2023-04-05T13:03:43.895Z,3.83
2023-04-05T13:05:15.344Z,3.95
2023-04-05T13:06:46.789Z,4.07
2023-04-05T13:08:18.492Z,4.06
2023-04-05T13:09:49.998Z,4.04
2023-04-05T13:11:21.480Z,3.89
2023-04-05T13:12:53.162Z,4.20
2023-04-05T13:14:24.732Z,3.81
2023-04-05T13:15:56.352Z,3.92
2023-04-05T13:17:28.333Z,4.08
2023-04-05T13:18:59.870Z,3.87
2023-04-05T13:20:31.259Z,3.79
2023-04-05T13:22:02.859Z,3.94
2023-04-05T13:23:34.422Z,3.99
2023-04-05T13:25:05.862Z,3.86
2023-04-05T13:26:37.338Z,3.96
2023-04-05T13:28:08.765Z,4.08
2023-04-05T13:29:40.281Z,4.40
2023-04-05T13:31:13.552Z,3.96
2023-04-05T13:32:46.876Z,3.96
2023-04-05T13:34:18.522Z,4.30
2023-04-05T13:35:51.240Z,4.02
2023-04-05T13:37:23.068Z,4.13
2023-04-05T13:38:54.694Z,4.04
2023-04-05T13:40:26.305Z,3.73
2023-04-05T13:41:57.942Z,3.65
2023-04-05T13:43:29.371Z,4.10
2023-04-05T13:45:00.919Z,3.85
2023-04-05T13:46:32.467Z,3.83
2023-04-05T13:48:04.038Z,4.61
2023-04-05T13:49:35.843Z,4.32
2023-04-05T13:51:07.134Z,4.30
2023-04-05T13:52:38.833Z,3.83
2023-04-05T13:54:10.599Z,3.99
2023-04-05T13:55:42.156Z,4.29
2023-04-05T13:57:13.712Z,4.24
2023-04-05T13:58:45.409Z,4.05
2023-04-05T14:00:17.216Z,4.26
2023-04-05T14:01:48.905Z,4.17
2023-04-05T14:03:20.808Z,3.83
2023-04-05T14:04:52.232Z,3.88
2023-04-05T14:06:24.077Z,4.06
2023-04-05T14:07:55.690Z,3.99
2023-04-05T14:09:27.226Z,4.84
2023-04-05T14:10:58.939Z,3.80
2023-04-05T14:12:30.635Z,3.34
2023-04-05T14:14:02.817Z,3.61
2023-04-05T14:15:34.182Z,3.80
2023-04-05T14:17:06.072Z,3.47
2023-04-05T14:18:37.674Z,3.05
2023-04-05T14:20:09.137Z,3.63
2023-04-05T14:21:40.603Z,3.92
2023-04-05T14:23:12.410Z,3.98
2023-04-05T14:24:44.434Z,4.17
2023-04-05T14:26:15.880Z,4.02
2023-04-05T14:27:47.412Z,3.93
2023-04-05T14:29:18.999Z,3.92
2023-04-05T14:30:50.544Z,4.00
2023-04-05T14:32:22.065Z,4.16
2023-04-05T14:33:53.421Z,4.01
2023-04-05T14:35:24.868Z,3.90
2023-04-05T14:36:56.485Z,4.15
2023-04-05T14:38:28.048Z,4.39
2023-04-05T14:39:59.801Z,3.94
2023-04-05T14:41:31.418Z,4.13
2023-04-05T14:43:02.964Z,4.12
2023-04-05T14:44:34.370Z,3.92
2023-04-05T14:46:05.753Z,3.73
2023-04-05T14:47:37.285Z,3.88
2023-04-05T14:49:08.696Z,3.67
2023-04-05T14:50:40.408Z,3.66
2023-04-05T14:52:12.068Z,3.76
2023-04-05T14:53:44.775Z,4.00
2023-04-05T14:55:17.034Z,3.72
2023-04-05T14:56:48.513Z,3.44
2023-04-05T14:58:19.928Z,3.36
2023-04-05T14:59:51.565Z,3.55
2023-04-05T15:01:23.110Z,3.70
2023-04-05T15:02:54.599Z,3.64
2023-04-05T15:04:26.264Z,3.58
2023-04-05T15:05:59.264Z,3.76
2023-04-05T15:07:30.668Z,4.03
2023-04-05T15:09:02.404Z,3.88
2023-04-05T15:10:34.750Z,4.15
2023-04-05T15:12:06.082Z,4.09
2023-04-05T15:13:37.455Z,4.06
2023-04-05T15:15:08.853Z,4.16
2023-04-05T15:16:40.337Z,4.07
2023-04-05T15:18:12.116Z,4.43
2023-04-05T15:19:43.658Z,4.22
2023-04-05T15:21:15.109Z,4.39
2023-04-05T15:22:46.502Z,4.21
2023-04-05T15:24:18.023Z,4.03
2023-04-05T15:25:49.370Z,4.45
2023-04-05T15:27:20.792Z,4.38
2023-04-05T15:28:52.153Z,4.37
2023-04-05T15:30:23.506Z,4.54
2023-04-05T15:31:55.433Z,4.28
2023-04-05T15:33:26.976Z,4.30
2023-04-05T15:34:58.400Z,4.89
2023-04-05T15:36:29.763Z,4.61
2023-04-05T15:38:01.183Z,4.41
2023-04-05T15:39:32.614Z,4.44
2023-04-05T15:41:04.183Z,4.52
2023-04-05T15:42:35.648Z,4.40
2023-04-05T15:44:08.188Z,4.13
2023-04-05T15:45:39.615Z,4.10
2023-04-05T15:47:11.445Z,4.25
2023-04-05T15:48:43.138Z,4.37
2023-04-05T15:50:14.691Z,4.32
2023-04-05T15:51:46.481Z,4.28
2023-04-05T15:53:17.926Z,4.40
2023-04-05T15:54:49.383Z,4.45
2023-04-05T15:56:21.155Z,4.59
2023-04-05T15:57:52.716Z,4.27
2023-04-05T15:59:24.596Z,4.39
2023-04-05T16:00:56.173Z,4.16
2023-04-05T16:02:27.925Z,4.57
2023-04-05T16:03:59.790Z,4.25
2023-04-05T16:05:31.514Z,4.45
2023-04-05T16:07:03.379Z,4.43
2023-04-05T16:08:34.737Z,4.15
2023-04-05T16:10:06.464Z,4.34
2023-04-05T16:11:38.142Z,4.67
2023-04-05T16:13:10.029Z,4.53
2023-04-05T16:14:41.823Z,4.71
2023-04-05T16:16:20.493Z,4.34
2023-04-05T16:17:59.567Z,4.58
2023-04-05T16:19:31.358Z,4.60
2023-04-05T16:21:02.814Z,5.05
2023-04-05T16:22:34.891Z,5.02
2023-04-05T16:24:06.493Z,4.61
2023-04-05T16:25:37.907Z,4.54
2023-04-05T16:27:09.692Z,4.58
2023-04-05T16:28:41.200Z,4.29
2023-04-05T16:30:13.166Z,4.76
2023-04-05T16:31:44.800Z,4.47
2023-04-05T16:33:16.415Z,4.45
2023-04-05T16:34:47.844Z,4.62
2023-04-05T16:36:19.263Z,4.39
2023-04-05T16:37:50.779Z,4.62
2023-04-05T16:39:22.305Z,4.60
2023-04-05T16:40:53.817Z,4.29
2023-04-05T16:42:25.480Z,4.31
2023-04-05T16:43:56.849Z,4.13
2023-04-05T16:45:28.343Z,4.17
2023-04-05T16:46:59.743Z,4.13
2023-04-05T16:48:31.142Z,4.56
2023-04-05T16:50:02.528Z,4.44
2023-04-05T16:51:34.055Z,4.53
2023-04-05T16:53:05.647Z,4.73
2023-04-05T16:54:37.180Z,5.48
2023-04-05T16:56:10.847Z,5.48
2023-04-05T16:57:42.206Z,5.14
2023-04-05T16:59:13.543Z,4.67
2023-04-05T17:00:44.985Z,4.51
2023-04-05T17:02:16.432Z,5.16
2023-04-05T17:03:58.051Z,4.69
2023-04-05T17:05:29.515Z,4.60
2023-04-05T17:07:01.002Z,4.67
2023-04-05T17:08:32.389Z,4.48
2023-04-05T17:10:03.701Z,4.10
2023-04-05T17:11:40.162Z,4.91
2023-04-05T17:13:11.484Z,4.72
2023-04-05T17:14:43.459Z,4.41
2023-04-05T17:16:15.287Z,4.59
2023-04-05T17:17:47.013Z,4.22
2023-04-05T17:19:29.089Z,4.53
2023-04-05T17:21:00.463Z,4.45
2023-04-05T17:22:41.962Z,4.12
2023-04-05T17:24:38.287Z,4.23
2023-04-05T17:26:29.705Z,4.60
2023-04-05T17:28:16.097Z,5.88
2023-04-05T17:29:51.983Z,5.08
2023-04-05T17:31:47.315Z,4.47
2023-04-05T17:33:20.020Z,4.40
2023-04-05T17:34:51.724Z,5.82
2023-04-05T17:38:35.319Z,4.33
2023-04-05T17:40:11.500Z,4.07
2023-04-05T17:42:09.498Z,4.39
2023-04-05T17:43:42.995Z,4.66
2023-04-05T17:47:32.060Z,4.24
2023-04-05T17:49:13.545Z,4.48
2023-04-05T17:50:49.940Z,4.29
2023-04-05T17:52:38.442Z,4.10
2023-04-05T17:54:24.867Z,4.20
2023-04-05T17:56:10.656Z,4.39
2023-04-05T17:58:15.892Z,4.41
2023-04-05T17:59:47.274Z,4.49
2023-04-05T18:01:18.786Z,4.67
2023-04-05T18:03:13.717Z,4.40
2023-04-05T18:04:45.433Z,4.37
2023-04-05T18:06:16.712Z,4.66
2023-04-05T18:07:48.230Z,4.82
2023-04-05T18:09:19.438Z,4.82
2023-04-05T18:10:55.872Z,5.06
2023-04-05T18:12:37.167Z,4.79
2023-04-05T18:14:13.590Z,4.45
2023-04-05T18:15:54.908Z,4.84
2023-04-05T18:17:26.208Z,4.79
2023-04-05T18:18:57.502Z,5.19
2023-04-05T18:20:46.934Z,4.86
2023-04-05T18:22:32.299Z,4.81
2023-04-05T18:24:03.701Z,4.78
2023-04-05T18:25:34.909Z,4.56
2023-04-05T18:27:06.205Z,5.03
2023-04-05T18:28:37.816Z,5.65
2023-04-05T18:30:09.201Z,5.79
2023-04-05T18:31:40.553Z,6.49
2023-04-05T18:33:22.117Z,5.85
2023-04-05T18:34:53.311Z,5.48
2023-04-05T18:36:24.694Z,4.97
2023-04-05T18:37:56.419Z,4.81
2023-04-05T18:39:28.269Z,4.78
2023-04-05T18:40:59.459Z,4.86
2023-04-05T18:42:31.333Z,5.01
2023-04-05T18:44:02.616Z,5.00
2023-04-05T18:45:34.065Z,5.00
2023-04-05T18:47:05.400Z,4.76
2023-04-05T18:48:41.586Z,5.13
2023-04-05T18:50:12.878Z,4.90
2023-04-05T18:52:04.103Z,5.15
2023-04-05T18:53:35.482Z,5.10
2023-04-05T18:55:44.707Z,5.17
2023-04-05T18:57:23.287Z,5.46
2023-04-05T18:58:54.606Z,5.58
2023-04-05T19:00:39.598Z,5.41
2023-04-05T19:02:22.745Z,5.22
2023-04-05T19:03:54.238Z,5.32
2023-04-05T19:06:06.487Z,5.21
2023-04-05T19:07:38.224Z,5.25
2023-04-05T19:09:19.483Z,5.37
2023-04-05T19:10:56.011Z,5.54
2023-04-05T19:12:33.854Z,5.64
2023-04-05T19:14:05.017Z,5.67
2023-04-05T19:15:51.488Z,5.78
2023-04-05T19:17:27.968Z,6.09
2023-04-05T19:20:54.031Z,6.62
2023-04-05T19:22:47.972Z,6.52
2023-04-05T19:24:31.635Z,6.66
2023-04-05T19:26:03.467Z,6.84
2023-04-05T19:27:35.967Z,7.03
2023-04-05T19:29:12.754Z,7.06
2023-04-05T19:31:00.669Z,7.21
2023-04-05T19:32:32.498Z,6.89
2023-04-05T19:34:05.551Z,6.52
2023-04-05T19:35:37.622Z,6.08
2023-04-05T19:37:09.354Z,6.29
2023-04-05T19:38:41.080Z,6.44
2023-04-05T19:40:45.505Z,6.59
2023-04-05T19:42:22.493Z,6.34
2023-04-05T19:43:53.824Z,6.32
2023-04-05T19:45:39.306Z,6.80
2023-04-05T19:47:11.211Z,6.82
2023-04-05T19:48:52.608Z,7.05
2023-04-05T19:50:26.599Z,7.32
2023-04-05T19:52:15.420Z,7.80
2023-04-05T19:54:05.916Z,8.46
2023-04-05T19:55:43.934Z,8.54
2023-04-05T19:57:15.483Z,7.81
2023-04-05T19:58:47.459Z,7.30
2023-04-05T20:00:33.570Z,6.85
2023-04-05T20:02:08.923Z,6.86
2023-04-05T20:03:54.316Z,7.15
2023-04-05T20:05:27.649Z,7.40
2023-04-05T20:07:09.218Z,7.85
2023-04-05T20:08:52.401Z,7.74
2023-04-05T20:10:24.477Z,7.59
2023-04-05T20:11:56.475Z,7.57
2023-04-05T20:13:37.862Z,7.54
2023-04-05T20:15:14.109Z,7.62
2023-04-05T20:16:51.571Z,8.18
2023-04-05T20:18:23.261Z,9.16
2023-04-05T20:20:26.044Z,17.77
2023-04-05T20:22:07.414Z,21.90
2023-04-05T20:23:49.520Z,18.39
2023-04-05T20:25:21.172Z,13.53
2023-04-05T20:26:52.817Z,11.55
2023-04-05T20:28:35.898Z,11.09
2023-04-05T20:30:07.363Z,9.92
2023-04-05T20:31:39.828Z,9.49
2023-04-05T20:33:36.704Z,8.70
2023-04-05T20:35:09.410Z,8.32
2023-04-05T20:36:53.225Z,8.35
2023-04-05T20:38:30.680Z,8.38
2023-04-05T20:40:14.922Z,8.40